Philadelphia, PA (19255)

1:42 PM EST on February 11, 2016 (GMT -0500)
Graduate Hospital | | Change Station
CLOSE
Current Station
Personal Weather Station
Location: Philadelphia, PA
Elevation: 52 ft
Nearby Weather Stations

Elev 52 ft 39.94 °N, 75.17 °W | Updated 6 minutes ago

Overcast
Overcast
27.0 °F
Feels Like 15 °F
N
16.1
Wind Variable Wind from SSE

Today
High -- | Low -- °F
--% Chance of Precip.
Yesterday
High -- | Low -- °F
Precip. -- in
Pressure 30.03 in
Visibility 10.0 miles
Clouds Few 5000 ft
Mostly Cloudy 6000 ft
Windchill 15 °F
Dew Point 5 °F
Humidity 39%
Rainfall 0.04 in
Snow Depth Not available.
6:58 AM 5:31 PM
Waxing Crescent, 13% visible
METAR KPHL 111754Z 28015G27KT 10SM FEW050 BKN060 M03/M20 A3003 RMK AO2 PK WND 30033/1735 SLP168 VIRGA T10331200 11028 21056 58001 $
Pressure 30.03 in
Visibility 10.0 miles
Clouds Few 5000 ft
Mostly Cloudy 6000 ft
Windchill 15 °F
Dew Point 5 °F
Humidity 39%
Rainfall 0.04 in
Snow Depth Not available.
6:58 AM 5:31 PM
Waxing Crescent, 13% visible
METAR KPHL 111754Z 28015G27KT 10SM FEW050 BKN060 M03/M20 A3003 RMK AO2 PK WND 30033/1735 SLP168 VIRGA T10331200 11028 21056 58001 $

10-Day Weather Forecast

Almanac

Astronomy

Feb. 11, 2016 Rise Set
Actual Time
Civil Twilight
Nautical Twilight
Astronomical Twilight
Moon
Length of Visible Light
Length of Day
Tomorrow will be .
, % of the Moon is Illuminated

Today's Extremes

State Highs State Lows

Community

WunderPhotos

Upload Photos

1,892,125 photos uploaded!

WunderBlog® & News

Nearby

Air Quality

  Air Quality AQ Index Pollutant
Not available.

Snow Depth

Station Depth Elevation

Earthquake Activity

City Distance Mag. Time & Date
Minimum magnitude displayed is 2.5.

Coastal Water Temperatures

Place Temperature

Stations

Nearby Weather Stations

Station Location Temp. Windchill Dew Point Humidity Wind Precip. Elev Updated Type
                   

Watches & Warnings

There are currently no watches in effect.